Measham, United Kingdom
Current Conditions -  °F | °C
As of 4:20 PM on Friday 31 Oct 2014 (Local Time) from EGNX Reporting Station
Clear Clear  
Wind Chill: 66°   Ceiling: Unl
Heat Index: 66°   Visibility: 6mi
Dew Point: 54°   Wind: 13mph
Humidity: 64%   Direction: 180°S
Pressure: 29.88"   Gusts: NA
Location:  52.71°N, 1.51°W
Report Text: EGNX 311620Z 18011KT CAVOK 19/12 Q1012
Loading
Personal Weather Stations






























Interactive Weather Map New forecast layout! Learn more

10-Day Weather Forecast

Advertisements
Track Severe Weather on mobile